sensor_id;sensor_type;location;lat;lon;timestamp;P1;durP1;ratioP1;P2;durP2;ratioP2
77563;SDS011;66703;48.076;9.220;2023-12-20T00:01:23;18.38;;;17.42;;
77563;SDS011;66703;48.076;9.220;2023-12-20T00:03:48;17.05;;;16.15;;
77563;SDS011;66703;48.076;9.220;2023-12-20T00:06:14;23.52;;;22.45;;
77563;SDS011;66703;48.076;9.220;2023-12-20T00:08:39;21.65;;;20.55;;
77563;SDS011;66703;48.076;9.220;2023-12-20T00:11:05;18.25;;;17.20;;
77563;SDS011;66703;48.076;9.220;2023-12-20T00:13:30;22.05;;;21.13;;
77563;SDS011;66703;48.076;9.220;2023-12-20T00:15:55;14.82;;;14.13;;
77563;SDS011;66703;48.076;9.220;2023-12-20T00:18:21;17.77;;;16.88;;
77563;SDS011;66703;48.076;9.220;2023-12-20T00:20:46;14.13;;;13.40;;
77563;SDS011;66703;48.076;9.220;2023-12-20T00:23:12;17.35;;;16.65;;
77563;SDS011;66703;48.076;9.220;2023-12-20T00:25:37;21.80;;;20.80;;
77563;SDS011;66703;48.076;9.220;2023-12-20T00:28:03;15.68;;;14.85;;
77563;SDS011;66703;48.076;9.220;2023-12-20T00:30:28;21.98;;;20.95;;
77563;SDS011;66703;48.076;9.220;2023-12-20T00:32:53;43.92;;;42.28;;
77563;SDS011;66703;48.076;9.220;2023-12-20T00:35:19;18.65;;;17.67;;
77563;SDS011;66703;48.076;9.220;2023-12-20T00:37:45;32.90;;;31.67;;
77563;SDS011;66703;48.076;9.220;2023-12-20T00:40:10;31.38;;;30.15;;
77563;SDS011;66703;48.076;9.220;2023-12-20T00:42:36;13.80;;;13.15;;
77563;SDS011;66703;48.076;9.220;2023-12-20T00:45:02;20.77;;;19.98;;
77563;SDS011;66703;48.076;9.220;2023-12-20T00:47:29;21.63;;;20.63;;
77563;SDS011;66703;48.076;9.220;2023-12-20T00:49:55;15.55;;;14.82;;
77563;SDS011;66703;48.076;9.220;2023-12-20T00:52:20;16.55;;;15.65;;
77563;SDS011;66703;48.076;9.220;2023-12-20T00:54:47;16.98;;;16.25;;
77563;SDS011;66703;48.076;9.220;2023-12-20T00:57:13;17.60;;;16.80;;
77563;SDS011;66703;48.076;9.220;2023-12-20T00:59:38;16.65;;;15.88;;
77563;SDS011;66703;48.076;9.220;2023-12-20T01:02:04;15.23;;;14.52;;
77563;SDS011;66703;48.076;9.220;2023-12-20T01:04:29;16.00;;;15.25;;
77563;SDS011;66703;48.076;9.220;2023-12-20T01:06:55;14.57;;;13.85;;
77563;SDS011;66703;48.076;9.220;2023-12-20T01:09:20;14.40;;;13.70;;
77563;SDS011;66703;48.076;9.220;2023-12-20T01:11:48;14.32;;;13.50;;
77563;SDS011;66703;48.076;9.220;2023-12-20T01:14:14;14.07;;;13.38;;
77563;SDS011;66703;48.076;9.220;2023-12-20T01:16:39;14.50;;;13.75;;
77563;SDS011;66703;48.076;9.220;2023-12-20T01:19:05;14.98;;;14.27;;
77563;SDS011;66703;48.076;9.220;2023-12-20T01:21:30;15.88;;;14.93;;
77563;SDS011;66703;48.076;9.220;2023-12-20T01:23:55;18.73;;;17.83;;
77563;SDS011;66703;48.076;9.220;2023-12-20T01:26:21;18.00;;;16.92;;
77563;SDS011;66703;48.076;9.220;2023-12-20T01:28:46;16.02;;;15.23;;
77563;SDS011;66703;48.076;9.220;2023-12-20T01:31:12;15.73;;;15.00;;
77563;SDS011;66703;48.076;9.220;2023-12-20T01:33:37;13.20;;;12.40;;
77563;SDS011;66703;48.076;9.220;2023-12-20T01:36:03;17.13;;;16.23;;
77563;SDS011;66703;48.076;9.220;2023-12-20T01:38:29;10.07;;;9.57;;
77563;SDS011;66703;48.076;9.220;2023-12-20T01:40:54;16.75;;;15.85;;
77563;SDS011;66703;48.076;9.220;2023-12-20T01:43:19;10.18;;;9.68;;
77563;SDS011;66703;48.076;9.220;2023-12-20T01:45:45;19.05;;;18.25;;
77563;SDS011;66703;48.076;9.220;2023-12-20T01:48:11;16.45;;;15.68;;
77563;SDS011;66703;48.076;9.220;2023-12-20T01:50:37;16.90;;;16.17;;
77563;SDS011;66703;48.076;9.220;2023-12-20T01:53:05;21.85;;;20.92;;
77563;SDS011;66703;48.076;9.220;2023-12-20T01:55:33;16.35;;;15.65;;
77563;SDS011;66703;48.076;9.220;2023-12-20T01:58:00;17.83;;;17.10;;
77563;SDS011;66703;48.076;9.220;2023-12-20T02:00:26;26.02;;;24.98;;
77563;SDS011;66703;48.076;9.220;2023-12-20T02:02:52;16.75;;;16.02;;
77563;SDS011;66703;48.076;9.220;2023-12-20T02:05:19;17.73;;;17.02;;
77563;SDS011;66703;48.076;9.220;2023-12-20T02:07:44;22.13;;;21.27;;
77563;SDS011;66703;48.076;9.220;2023-12-20T02:10:09;15.43;;;14.60;;
77563;SDS011;66703;48.076;9.220;2023-12-20T02:12:35;17.38;;;16.35;;
77563;SDS011;66703;48.076;9.220;2023-12-20T02:15:00;14.15;;;13.43;;
77563;SDS011;66703;48.076;9.220;2023-12-20T02:17:26;17.20;;;16.25;;
77563;SDS011;66703;48.076;9.220;2023-12-20T02:19:52;15.93;;;14.93;;
77563;SDS011;66703;48.076;9.220;2023-12-20T02:22:18;26.77;;;25.65;;
77563;SDS011;66703;48.076;9.220;2023-12-20T02:24:43;15.35;;;14.55;;
77563;SDS011;66703;48.076;9.220;2023-12-20T02:27:08;17.10;;;16.30;;
77563;SDS011;66703;48.076;9.220;2023-12-20T02:29:34;20.42;;;19.52;;
77563;SDS011;66703;48.076;9.220;2023-12-20T02:32:00;14.95;;;14.25;;
77563;SDS011;66703;48.076;9.220;2023-12-20T02:34:26;14.48;;;13.82;;
77563;SDS011;66703;48.076;9.220;2023-12-20T02:36:52;15.88;;;15.18;;
77563;SDS011;66703;48.076;9.220;2023-12-20T02:39:17;16.42;;;15.73;;
77563;SDS011;66703;48.076;9.220;2023-12-20T02:41:44;17.52;;;16.67;;
77563;SDS011;66703;48.076;9.220;2023-12-20T02:44:09;11.73;;;11.18;;
77563;SDS011;66703;48.076;9.220;2023-12-20T02:46:34;15.90;;;15.27;;
77563;SDS011;66703;48.076;9.220;2023-12-20T02:49:00;14.82;;;14.10;;
77563;SDS011;66703;48.076;9.220;2023-12-20T02:51:25;13.57;;;12.98;;
77563;SDS011;66703;48.076;9.220;2023-12-20T02:53:50;16.05;;;15.32;;
77563;SDS011;66703;48.076;9.220;2023-12-20T02:56:16;27.17;;;26.27;;
77563;SDS011;66703;48.076;9.220;2023-12-20T02:58:41;14.82;;;14.23;;
77563;SDS011;66703;48.076;9.220;2023-12-20T03:01:06;20.27;;;19.42;;
77563;SDS011;66703;48.076;9.220;2023-12-20T03:03:32;14.23;;;13.63;;
77563;SDS011;66703;48.076;9.220;2023-12-20T03:05:57;15.80;;;14.95;;
77563;SDS011;66703;48.076;9.220;2023-12-20T03:08:23;20.63;;;19.77;;
77563;SDS011;66703;48.076;9.220;2023-12-20T03:10:48;19.02;;;18.30;;
77563;SDS011;66703;48.076;9.220;2023-12-20T03:13:13;15.80;;;15.07;;
77563;SDS011;66703;48.076;9.220;2023-12-20T03:15:39;16.20;;;15.50;;
77563;SDS011;66703;48.076;9.220;2023-12-20T03:18:05;17.98;;;17.35;;
77563;SDS011;66703;48.076;9.220;2023-12-20T03:20:30;15.38;;;14.65;;
77563;SDS011;66703;48.076;9.220;2023-12-20T03:22:59;17.17;;;16.50;;
77563;SDS011;66703;48.076;9.220;2023-12-20T03:25:24;20.45;;;19.63;;
77563;SDS011;66703;48.076;9.220;2023-12-20T03:27:50;25.60;;;24.67;;
77563;SDS011;66703;48.076;9.220;2023-12-20T03:30:15;11.27;;;10.75;;
77563;SDS011;66703;48.076;9.220;2023-12-20T03:32:40;13.98;;;13.38;;
77563;SDS011;66703;48.076;9.220;2023-12-20T03:35:06;15.20;;;14.60;;
77563;SDS011;66703;48.076;9.220;2023-12-20T03:37:31;19.75;;;18.95;;
77563;SDS011;66703;48.076;9.220;2023-12-20T03:39:57;14.32;;;13.63;;
77563;SDS011;66703;48.076;9.220;2023-12-20T03:42:22;12.98;;;12.45;;
77563;SDS011;66703;48.076;9.220;2023-12-20T03:44:47;29.77;;;28.77;;
77563;SDS011;66703;48.076;9.220;2023-12-20T03:47:13;27.45;;;26.45;;
77563;SDS011;66703;48.076;9.220;2023-12-20T03:49:38;16.02;;;15.43;;
77563;SDS011;66703;48.076;9.220;2023-12-20T03:52:04;20.55;;;19.65;;
77563;SDS011;66703;48.076;9.220;2023-12-20T03:54:29;18.98;;;18.25;;
77563;SDS011;66703;48.076;9.220;2023-12-20T03:56:55;15.65;;;14.95;;
77563;SDS011;66703;48.076;9.220;2023-12-20T03:59:20;12.10;;;11.48;;
77563;SDS011;66703;48.076;9.220;2023-12-20T04:01:45;15.15;;;14.52;;
77563;SDS011;66703;48.076;9.220;2023-12-20T04:04:11;16.70;;;15.85;;
77563;SDS011;66703;48.076;9.220;2023-12-20T04:06:37;17.10;;;16.27;;
77563;SDS011;66703;48.076;9.220;2023-12-20T04:09:03;14.35;;;13.55;;
77563;SDS011;66703;48.076;9.220;2023-12-20T04:11:28;14.55;;;13.82;;
77563;SDS011;66703;48.076;9.220;2023-12-20T04:13:54;22.10;;;21.00;;
77563;SDS011;66703;48.076;9.220;2023-12-20T04:16:19;14.88;;;13.98;;
77563;SDS011;66703;48.076;9.220;2023-12-20T04:18:44;20.48;;;19.50;;
77563;SDS011;66703;48.076;9.220;2023-12-20T04:21:10;16.15;;;15.15;;
77563;SDS011;66703;48.076;9.220;2023-12-20T04:23:35;18.77;;;17.70;;
77563;SDS011;66703;48.076;9.220;2023-12-20T04:26:00;22.83;;;21.70;;
77563;SDS011;66703;48.076;9.220;2023-12-20T04:28:26;17.25;;;16.27;;
77563;SDS011;66703;48.076;9.220;2023-12-20T04:30:51;21.63;;;20.33;;
77563;SDS011;66703;48.076;9.220;2023-12-20T04:33:17;21.83;;;20.83;;
77563;SDS011;66703;48.076;9.220;2023-12-20T04:35:42;15.95;;;15.05;;
77563;SDS011;66703;48.076;9.220;2023-12-20T04:38:08;20.90;;;19.63;;
77563;SDS011;66703;48.076;9.220;2023-12-20T04:40:34;18.92;;;17.75;;
77563;SDS011;66703;48.076;9.220;2023-12-20T04:42:59;16.33;;;15.13;;
77563;SDS011;66703;48.076;9.220;2023-12-20T04:45:25;24.48;;;23.25;;
77563;SDS011;66703;48.076;9.220;2023-12-20T04:47:50;17.13;;;16.20;;
77563;SDS011;66703;48.076;9.220;2023-12-20T04:50:16;23.02;;;21.60;;
77563;SDS011;66703;48.076;9.220;2023-12-20T04:52:41;34.08;;;32.15;;
77563;SDS011;66703;48.076;9.220;2023-12-20T04:55:07;19.23;;;18.13;;
77563;SDS011;66703;48.076;9.220;2023-12-20T04:57:33;20.38;;;19.08;;
77563;SDS011;66703;48.076;9.220;2023-12-20T04:59:59;33.08;;;31.60;;
77563;SDS011;66703;48.076;9.220;2023-12-20T05:02:25;26.95;;;25.30;;
77563;SDS011;66703;48.076;9.220;2023-12-20T05:04:50;17.83;;;16.67;;
77563;SDS011;66703;48.076;9.220;2023-12-20T05:07:15;25.23;;;23.80;;
77563;SDS011;66703;48.076;9.220;2023-12-20T05:09:41;22.85;;;21.67;;
77563;SDS011;66703;48.076;9.220;2023-12-20T05:12:06;18.52;;;17.40;;
77563;SDS011;66703;48.076;9.220;2023-12-20T05:14:32;27.02;;;25.58;;
77563;SDS011;66703;48.076;9.220;2023-12-20T05:16:57;24.92;;;23.45;;
77563;SDS011;66703;48.076;9.220;2023-12-20T05:19:23;23.85;;;22.60;;
77563;SDS011;66703;48.076;9.220;2023-12-20T05:21:49;23.13;;;21.90;;
77563;SDS011;66703;48.076;9.220;2023-12-20T05:24:14;20.90;;;19.70;;
77563;SDS011;66703;48.076;9.220;2023-12-20T05:26:40;20.40;;;19.33;;
77563;SDS011;66703;48.076;9.220;2023-12-20T05:29:05;25.35;;;24.02;;
77563;SDS011;66703;48.076;9.220;2023-12-20T05:31:31;18.67;;;17.40;;
77563;SDS011;66703;48.076;9.220;2023-12-20T05:33:57;32.97;;;31.63;;
77563;SDS011;66703;48.076;9.220;2023-12-20T05:36:23;19.33;;;18.23;;
77563;SDS011;66703;48.076;9.220;2023-12-20T05:38:48;23.63;;;22.20;;
77563;SDS011;66703;48.076;9.220;2023-12-20T05:41:14;38.17;;;36.30;;
77563;SDS011;66703;48.076;9.220;2023-12-20T05:43:39;21.98;;;20.38;;
77563;SDS011;66703;48.076;9.220;2023-12-20T05:46:04;19.42;;;18.05;;
77563;SDS011;66703;48.076;9.220;2023-12-20T05:48:30;22.48;;;21.08;;
77563;SDS011;66703;48.076;9.220;2023-12-20T05:50:55;36.75;;;35.10;;
77563;SDS011;66703;48.076;9.220;2023-12-20T05:53:21;23.45;;;22.02;;
77563;SDS011;66703;48.076;9.220;2023-12-20T05:55:46;20.38;;;19.17;;
77563;SDS011;66703;48.076;9.220;2023-12-20T05:58:12;23.50;;;22.20;;
77563;SDS011;66703;48.076;9.220;2023-12-20T06:00:37;20.05;;;18.73;;
77563;SDS011;66703;48.076;9.220;2023-12-20T06:03:03;21.58;;;20.17;;
77563;SDS011;66703;48.076;9.220;2023-12-20T06:05:30;22.05;;;20.70;;
77563;SDS011;66703;48.076;9.220;2023-12-20T06:07:56;21.30;;;20.05;;
77563;SDS011;66703;48.076;9.220;2023-12-20T06:12:51;16.77;;;15.65;;
77563;SDS011;66703;48.076;9.220;2023-12-20T06:15:17;19.40;;;18.20;;
77563;SDS011;66703;48.076;9.220;2023-12-20T06:17:42;21.65;;;20.38;;
77563;SDS011;66703;48.076;9.220;2023-12-20T06:20:08;23.27;;;21.88;;
77563;SDS011;66703;48.076;9.220;2023-12-20T06:22:34;29.20;;;27.60;;
77563;SDS011;66703;48.076;9.220;2023-12-20T06:25:00;24.17;;;22.77;;
77563;SDS011;66703;48.076;9.220;2023-12-20T06:27:25;21.90;;;20.60;;
77563;SDS011;66703;48.076;9.220;2023-12-20T06:29:51;21.23;;;19.88;;
77563;SDS011;66703;48.076;9.220;2023-12-20T06:32:16;19.45;;;18.13;;
77563;SDS011;66703;48.076;9.220;2023-12-20T06:34:41;23.02;;;21.63;;
77563;SDS011;66703;48.076;9.220;2023-12-20T06:37:07;20.13;;;18.77;;
77563;SDS011;66703;48.076;9.220;2023-12-20T06:39:32;16.10;;;15.00;;
77563;SDS011;66703;48.076;9.220;2023-12-20T06:41:59;17.25;;;16.15;;
77563;SDS011;66703;48.076;9.220;2023-12-20T06:44:24;21.88;;;20.42;;
77563;SDS011;66703;48.076;9.220;2023-12-20T06:46:50;27.77;;;25.95;;
77563;SDS011;66703;48.076;9.220;2023-12-20T06:49:15;18.50;;;17.45;;
77563;SDS011;66703;48.076;9.220;2023-12-20T06:51:41;27.42;;;26.02;;
77563;SDS011;66703;48.076;9.220;2023-12-20T06:54:06;23.75;;;22.42;;
77563;SDS011;66703;48.076;9.220;2023-12-20T06:56:32;22.75;;;21.35;;
77563;SDS011;66703;48.076;9.220;2023-12-20T06:58:57;28.50;;;27.08;;
77563;SDS011;66703;48.076;9.220;2023-12-20T07:01:23;19.10;;;17.88;;
77563;SDS011;66703;48.076;9.220;2023-12-20T07:03:48;26.40;;;24.92;;
77563;SDS011;66703;48.076;9.220;2023-12-20T07:06:14;22.95;;;21.42;;
77563;SDS011;66703;48.076;9.220;2023-12-20T07:08:41;20.73;;;19.63;;
77563;SDS011;66703;48.076;9.220;2023-12-20T07:11:07;20.92;;;19.83;;
77563;SDS011;66703;48.076;9.220;2023-12-20T07:13:32;34.13;;;32.53;;
77563;SDS011;66703;48.076;9.220;2023-12-20T07:15:58;21.80;;;20.63;;
77563;SDS011;66703;48.076;9.220;2023-12-20T07:18:23;24.77;;;23.25;;
77563;SDS011;66703;48.076;9.220;2023-12-20T07:20:49;21.67;;;20.45;;
77563;SDS011;66703;48.076;9.220;2023-12-20T07:23:14;22.33;;;21.10;;
77563;SDS011;66703;48.076;9.220;2023-12-20T07:25:39;20.23;;;19.02;;
77563;SDS011;66703;48.076;9.220;2023-12-20T07:28:05;19.73;;;18.50;;
77563;SDS011;66703;48.076;9.220;2023-12-20T07:30:30;23.63;;;22.27;;
77563;SDS011;66703;48.076;9.220;2023-12-20T07:32:56;29.63;;;28.25;;
77563;SDS011;66703;48.076;9.220;2023-12-20T07:35:23;27.52;;;26.20;;
77563;SDS011;66703;48.076;9.220;2023-12-20T07:37:48;25.65;;;24.20;;
77563;SDS011;66703;48.076;9.220;2023-12-20T07:40:14;21.70;;;20.45;;
77563;SDS011;66703;48.076;9.220;2023-12-20T07:42:42;24.85;;;23.42;;
77563;SDS011;66703;48.076;9.220;2023-12-20T07:45:07;24.63;;;23.23;;
77563;SDS011;66703;48.076;9.220;2023-12-20T07:47:34;35.17;;;33.58;;
77563;SDS011;66703;48.076;9.220;2023-12-20T07:49:59;23.10;;;21.83;;
77563;SDS011;66703;48.076;9.220;2023-12-20T07:52:25;19.45;;;18.33;;
77563;SDS011;66703;48.076;9.220;2023-12-20T07:54:51;29.90;;;28.40;;
77563;SDS011;66703;48.076;9.220;2023-12-20T07:57:16;26.10;;;24.63;;
77563;SDS011;66703;48.076;9.220;2023-12-20T07:59:42;23.15;;;21.65;;
77563;SDS011;66703;48.076;9.220;2023-12-20T08:02:09;24.42;;;23.02;;
77563;SDS011;66703;48.076;9.220;2023-12-20T08:04:34;21.92;;;20.63;;
77563;SDS011;66703;48.076;9.220;2023-12-20T08:07:00;25.35;;;24.08;;
77563;SDS011;66703;48.076;9.220;2023-12-20T08:09:25;21.25;;;20.02;;
77563;SDS011;66703;48.076;9.220;2023-12-20T08:11:51;21.30;;;19.98;;
77563;SDS011;66703;48.076;9.220;2023-12-20T08:14:16;31.00;;;29.50;;
77563;SDS011;66703;48.076;9.220;2023-12-20T08:16:41;23.27;;;22.10;;
77563;SDS011;66703;48.076;9.220;2023-12-20T08:19:07;14.65;;;13.68;;
77563;SDS011;66703;48.076;9.220;2023-12-20T08:21:32;34.03;;;32.63;;
77563;SDS011;66703;48.076;9.220;2023-12-20T08:23:58;17.17;;;16.10;;
77563;SDS011;66703;48.076;9.220;2023-12-20T08:26:25;22.90;;;21.75;;
77563;SDS011;66703;48.076;9.220;2023-12-20T08:28:51;16.67;;;15.48;;
77563;SDS011;66703;48.076;9.220;2023-12-20T08:31:16;21.55;;;20.38;;
77563;SDS011;66703;48.076;9.220;2023-12-20T08:33:45;20.55;;;19.45;;
77563;SDS011;66703;48.076;9.220;2023-12-20T08:36:11;17.23;;;16.30;;
77563;SDS011;66703;48.076;9.220;2023-12-20T08:38:38;22.65;;;21.40;;
77563;SDS011;66703;48.076;9.220;2023-12-20T08:41:03;15.15;;;14.27;;
77563;SDS011;66703;48.076;9.220;2023-12-20T08:43:39;25.30;;;23.92;;
77563;SDS011;66703;48.076;9.220;2023-12-20T08:46:05;18.63;;;17.73;;
77563;SDS011;66703;48.076;9.220;2023-12-20T08:48:31;19.98;;;18.98;;
77563;SDS011;66703;48.076;9.220;2023-12-20T08:50:56;23.35;;;22.13;;
77563;SDS011;66703;48.076;9.220;2023-12-20T08:53:22;17.35;;;16.27;;
77563;SDS011;66703;48.076;9.220;2023-12-20T08:55:47;22.80;;;21.77;;
77563;SDS011;66703;48.076;9.220;2023-12-20T08:58:13;18.73;;;17.73;;
77563;SDS011;66703;48.076;9.220;2023-12-20T09:00:39;18.77;;;17.88;;
77563;SDS011;66703;48.076;9.220;2023-12-20T09:03:04;16.50;;;15.73;;
77563;SDS011;66703;48.076;9.220;2023-12-20T09:05:30;14.35;;;13.52;;
77563;SDS011;66703;48.076;9.220;2023-12-20T09:07:55;13.55;;;12.80;;
77563;SDS011;66703;48.076;9.220;2023-12-20T09:10:21;18.17;;;17.33;;
77563;SDS011;66703;48.076;9.220;2023-12-20T09:12:50;17.52;;;16.42;;
77563;SDS011;66703;48.076;9.220;2023-12-20T09:15:15;25.05;;;24.05;;
77563;SDS011;66703;48.076;9.220;2023-12-20T09:17:41;17.52;;;16.73;;
77563;SDS011;66703;48.076;9.220;2023-12-20T09:20:07;12.73;;;12.13;;
77563;SDS011;66703;48.076;9.220;2023-12-20T09:22:33;23.75;;;22.65;;
77563;SDS011;66703;48.076;9.220;2023-12-20T09:24:59;12.90;;;12.10;;
77563;SDS011;66703;48.076;9.220;2023-12-20T09:27:25;13.32;;;12.70;;
77563;SDS011;66703;48.076;9.220;2023-12-20T09:29:50;12.40;;;11.80;;
77563;SDS011;66703;48.076;9.220;2023-12-20T09:32:16;14.30;;;13.60;;
77563;SDS011;66703;48.076;9.220;2023-12-20T09:34:41;10.90;;;10.30;;
77563;SDS011;66703;48.076;9.220;2023-12-20T09:37:07;9.95;;;9.43;;
77563;SDS011;66703;48.076;9.220;2023-12-20T09:39:32;25.27;;;24.23;;
77563;SDS011;66703;48.076;9.220;2023-12-20T09:42:04;28.58;;;27.40;;
77563;SDS011;66703;48.076;9.220;2023-12-20T09:44:31;17.13;;;16.15;;
77563;SDS011;66703;48.076;9.220;2023-12-20T09:46:58;18.25;;;17.65;;
77563;SDS011;66703;48.076;9.220;2023-12-20T09:49:23;21.05;;;20.35;;
77563;SDS011;66703;48.076;9.220;2023-12-20T09:51:51;13.15;;;12.75;;
77563;SDS011;66703;48.076;9.220;2023-12-20T09:54:17;9.13;;;8.82;;
77563;SDS011;66703;48.076;9.220;2023-12-20T09:56:43;7.75;;;7.45;;
77563;SDS011;66703;48.076;9.220;2023-12-20T09:59:09;9.50;;;9.15;;
77563;SDS011;66703;48.076;9.220;2023-12-20T10:01:35;12.88;;;12.48;;
77563;SDS011;66703;48.076;9.220;2023-12-20T10:04:01;5.15;;;4.95;;
77563;SDS011;66703;48.076;9.220;2023-12-20T10:06:33;7.85;;;7.55;;
77563;SDS011;66703;48.076;9.220;2023-12-20T10:08:58;5.00;;;4.70;;
77563;SDS011;66703;48.076;9.220;2023-12-20T10:11:24;7.15;;;6.85;;
77563;SDS011;66703;48.076;9.220;2023-12-20T10:13:50;5.03;;;4.82;;
77563;SDS011;66703;48.076;9.220;2023-12-20T10:16:15;6.65;;;6.35;;
77563;SDS011;66703;48.076;9.220;2023-12-20T10:18:40;7.50;;;7.20;;
77563;SDS011;66703;48.076;9.220;2023-12-20T10:21:06;8.30;;;8.00;;
77563;SDS011;66703;48.076;9.220;2023-12-20T10:23:35;6.55;;;6.25;;
77563;SDS011;66703;48.076;9.220;2023-12-20T10:26:00;6.05;;;5.75;;
77563;SDS011;66703;48.076;9.220;2023-12-20T10:28:26;5.97;;;5.70;;
77563;SDS011;66703;48.076;9.220;2023-12-20T10:30:54;4.60;;;4.40;;
77563;SDS011;66703;48.076;9.220;2023-12-20T10:33:26;5.57;;;5.28;;
77563;SDS011;66703;48.076;9.220;2023-12-20T10:35:53;7.38;;;7.07;;
77563;SDS011;66703;48.076;9.220;2023-12-20T10:38:19;11.43;;;11.02;;
77563;SDS011;66703;48.076;9.220;2023-12-20T10:40:45;4.70;;;4.50;;
77563;SDS011;66703;48.076;9.220;2023-12-20T10:43:11;9.05;;;8.73;;
77563;SDS011;66703;48.076;9.220;2023-12-20T10:45:37;5.03;;;4.82;;
77563;SDS011;66703;48.076;9.220;2023-12-20T10:48:03;6.10;;;5.85;;
77563;SDS011;66703;48.076;9.220;2023-12-20T10:50:29;6.00;;;5.72;;
77563;SDS011;66703;48.076;9.220;2023-12-20T10:52:56;4.15;;;3.95;;
77563;SDS011;66703;48.076;9.220;2023-12-20T10:55:22;8.55;;;8.25;;
77563;SDS011;66703;48.076;9.220;2023-12-20T10:57:49;8.45;;;8.15;;
77563;SDS011;66703;48.076;9.220;2023-12-20T11:00:16;7.30;;;6.97;;
77563;SDS011;66703;48.076;9.220;2023-12-20T11:02:42;9.15;;;8.82;;
77563;SDS011;66703;48.076;9.220;2023-12-20T11:08:03;11.63;;;11.23;;
77563;SDS011;66703;48.076;9.220;2023-12-20T11:13:33;8.27;;;7.97;;
77563;SDS011;66703;48.076;9.220;2023-12-20T11:16:01;9.93;;;9.55;;
77563;SDS011;66703;48.076;9.220;2023-12-20T11:18:28;10.73;;;10.32;;
77563;SDS011;66703;48.076;9.220;2023-12-20T11:21:05;7.53;;;7.22;;
77563;SDS011;66703;48.076;9.220;2023-12-20T11:23:32;12.13;;;11.73;;
77563;SDS011;66703;48.076;9.220;2023-12-20T11:25:59;6.68;;;6.47;;
77563;SDS011;66703;48.076;9.220;2023-12-20T11:28:25;7.20;;;6.90;;
77563;SDS011;66703;48.076;9.220;2023-12-20T11:30:54;7.97;;;7.68;;
77563;SDS011;66703;48.076;9.220;2023-12-20T11:33:23;6.57;;;6.32;;
77563;SDS011;66703;48.076;9.220;2023-12-20T11:35:49;4.07;;;3.88;;
77563;SDS011;66703;48.076;9.220;2023-12-20T11:38:15;4.07;;;3.88;;
77563;SDS011;66703;48.076;9.220;2023-12-20T11:40:41;5.90;;;5.60;;
77563;SDS011;66703;48.076;9.220;2023-12-20T11:43:07;5.60;;;5.40;;
77563;SDS011;66703;48.076;9.220;2023-12-20T11:45:32;5.22;;;5.03;;
77563;SDS011;66703;48.076;9.220;2023-12-20T11:47:59;6.68;;;6.38;;
77563;SDS011;66703;48.076;9.220;2023-12-20T11:50:27;4.72;;;4.53;;
77563;SDS011;66703;48.076;9.220;2023-12-20T11:52:53;4.78;;;4.57;;
77563;SDS011;66703;48.076;9.220;2023-12-20T11:55:20;6.65;;;6.35;;
77563;SDS011;66703;48.076;9.220;2023-12-20T11:57:45;13.73;;;13.23;;
77563;SDS011;66703;48.076;9.220;2023-12-20T12:00:12;7.82;;;7.50;;
77563;SDS011;66703;48.076;9.220;2023-12-20T12:02:38;7.32;;;7.03;;
77563;SDS011;66703;48.076;9.220;2023-12-20T12:05:04;6.63;;;6.32;;
77563;SDS011;66703;48.076;9.220;2023-12-20T12:07:33;11.05;;;10.65;;
77563;SDS011;66703;48.076;9.220;2023-12-20T12:09:59;8.20;;;7.90;;
77563;SDS011;66703;48.076;9.220;2023-12-20T12:12:25;7.80;;;7.28;;
77563;SDS011;66703;48.076;9.220;2023-12-20T12:14:52;7.40;;;7.07;;
77563;SDS011;66703;48.076;9.220;2023-12-20T12:17:18;9.07;;;8.73;;
77563;SDS011;66703;48.076;9.220;2023-12-20T12:19:44;6.63;;;6.32;;
77563;SDS011;66703;48.076;9.220;2023-12-20T12:22:10;7.47;;;7.18;;
77563;SDS011;66703;48.076;9.220;2023-12-20T12:24:41;4.15;;;3.92;;
77563;SDS011;66703;48.076;9.220;2023-12-20T12:27:08;6.30;;;6.00;;
77563;SDS011;66703;48.076;9.220;2023-12-20T12:29:34;10.77;;;10.32;;
77563;SDS011;66703;48.076;9.220;2023-12-20T12:32:00;5.22;;;4.85;;
77563;SDS011;66703;48.076;9.220;2023-12-20T12:34:28;5.95;;;5.68;;
77563;SDS011;66703;48.076;9.220;2023-12-20T12:36:54;6.38;;;6.03;;
77563;SDS011;66703;48.076;9.220;2023-12-20T12:39:19;6.40;;;6.10;;
77563;SDS011;66703;48.076;9.220;2023-12-20T12:41:45;5.30;;;5.10;;
77563;SDS011;66703;48.076;9.220;2023-12-20T12:44:10;5.18;;;4.97;;
77563;SDS011;66703;48.076;9.220;2023-12-20T12:46:35;5.15;;;4.95;;
77563;SDS011;66703;48.076;9.220;2023-12-20T12:49:01;6.80;;;6.50;;
77563;SDS011;66703;48.076;9.220;2023-12-20T12:51:26;4.88;;;4.68;;
77563;SDS011;66703;48.076;9.220;2023-12-20T12:53:52;3.95;;;3.75;;
77563;SDS011;66703;48.076;9.220;2023-12-20T12:56:18;5.10;;;4.85;;
77563;SDS011;66703;48.076;9.220;2023-12-20T12:58:43;4.72;;;4.53;;
77563;SDS011;66703;48.076;9.220;2023-12-20T13:01:09;4.70;;;4.40;;
77563;SDS011;66703;48.076;9.220;2023-12-20T13:03:34;4.57;;;4.38;;
77563;SDS011;66703;48.076;9.220;2023-12-20T13:06:00;5.60;;;5.30;;
77563;SDS011;66703;48.076;9.220;2023-12-20T13:08:26;4.65;;;4.32;;
77563;SDS011;66703;48.076;9.220;2023-12-20T13:10:51;7.88;;;7.57;;
77563;SDS011;66703;48.076;9.220;2023-12-20T13:13:16;4.45;;;4.18;;
77563;SDS011;66703;48.076;9.220;2023-12-20T13:15:42;4.80;;;4.20;;
77563;SDS011;66703;48.076;9.220;2023-12-20T13:18:13;3.83;;;3.63;;
77563;SDS011;66703;48.076;9.220;2023-12-20T13:20:38;4.72;;;4.40;;
77563;SDS011;66703;48.076;9.220;2023-12-20T13:23:05;4.10;;;3.80;;
77563;SDS011;66703;48.076;9.220;2023-12-20T13:25:30;3.40;;;3.20;;
77563;SDS011;66703;48.076;9.220;2023-12-20T13:27:56;3.30;;;3.10;;
77563;SDS011;66703;48.076;9.220;2023-12-20T13:30:21;4.10;;;3.85;;
77563;SDS011;66703;48.076;9.220;2023-12-20T13:32:47;4.43;;;4.03;;
77563;SDS011;66703;48.076;9.220;2023-12-20T13:35:12;5.07;;;4.68;;
77563;SDS011;66703;48.076;9.220;2023-12-20T13:37:38;4.82;;;4.43;;
77563;SDS011;66703;48.076;9.220;2023-12-20T13:40:04;6.75;;;6.32;;
77563;SDS011;66703;48.076;9.220;2023-12-20T13:42:29;6.15;;;5.78;;
77563;SDS011;66703;48.076;9.220;2023-12-20T13:44:55;12.80;;;12.27;;
77563;SDS011;66703;48.076;9.220;2023-12-20T13:47:20;8.70;;;8.30;;
77563;SDS011;66703;48.076;9.220;2023-12-20T13:49:46;9.90;;;9.35;;
77563;SDS011;66703;48.076;9.220;2023-12-20T13:52:11;8.35;;;7.95;;
77563;SDS011;66703;48.076;9.220;2023-12-20T13:54:37;9.45;;;9.05;;
77563;SDS011;66703;48.076;9.220;2023-12-20T13:57:03;11.63;;;11.13;;
77563;SDS011;66703;48.076;9.220;2023-12-20T13:59:28;8.38;;;7.88;;
77563;SDS011;66703;48.076;9.220;2023-12-20T14:01:54;9.85;;;9.27;;
77563;SDS011;66703;48.076;9.220;2023-12-20T14:04:20;10.93;;;10.43;;
77563;SDS011;66703;48.076;9.220;2023-12-20T14:06:46;15.30;;;14.60;;
77563;SDS011;66703;48.076;9.220;2023-12-20T14:09:12;11.40;;;10.88;;
77563;SDS011;66703;48.076;9.220;2023-12-20T14:11:37;10.30;;;9.77;;
77563;SDS011;66703;48.076;9.220;2023-12-20T14:14:06;17.42;;;16.80;;
77563;SDS011;66703;48.076;9.220;2023-12-20T14:16:34;12.90;;;12.40;;
77563;SDS011;66703;48.076;9.220;2023-12-20T14:19:00;10.40;;;9.75;;
77563;SDS011;66703;48.076;9.220;2023-12-20T14:21:28;9.50;;;9.05;;
77563;SDS011;66703;48.076;9.220;2023-12-20T14:23:53;10.63;;;10.18;;
77563;SDS011;66703;48.076;9.220;2023-12-20T14:26:18;7.45;;;7.05;;
77563;SDS011;66703;48.076;9.220;2023-12-20T14:28:44;19.92;;;19.20;;